sensor_id;sensor_type;location;lat;lon;timestamp;temperature;humidity
68387;DHT22;55338;43.062;25.624;2023-03-26T00:00:44;13.70;99.90
68387;DHT22;55338;43.062;25.624;2023-03-26T00:03:15;13.70;99.90
68387;DHT22;55338;43.062;25.624;2023-03-26T00:05:41;13.60;99.90
68387;DHT22;55338;43.062;25.624;2023-03-26T00:08:08;13.60;99.90
68387;DHT22;55338;43.062;25.624;2023-03-26T00:10:35;13.50;99.90
68387;DHT22;55338;43.062;25.624;2023-03-26T00:13:02;13.40;99.90
68387;DHT22;55338;43.062;25.624;2023-03-26T00:15:28;13.30;99.90
68387;DHT22;55338;43.062;25.624;2023-03-26T00:17:54;13.20;99.90
68387;DHT22;55338;43.062;25.624;2023-03-26T00:20:20;13.10;99.90
68387;DHT22;55338;43.062;25.624;2023-03-26T00:22:47;12.90;99.90
68387;DHT22;55338;43.062;25.624;2023-03-26T00:25:13;12.90;99.90
68387;DHT22;55338;43.062;25.624;2023-03-26T00:27:39;12.90;99.90
68387;DHT22;55338;43.062;25.624;2023-03-26T00:30:05;12.80;99.90
68387;DHT22;55338;43.062;25.624;2023-03-26T00:32:31;12.80;99.90
68387;DHT22;55338;43.062;25.624;2023-03-26T00:34:57;12.80;99.90
68387;DHT22;55338;43.062;25.624;2023-03-26T00:37:23;12.70;99.90
68387;DHT22;55338;43.062;25.624;2023-03-26T00:39:55;12.70;99.90
68387;DHT22;55338;43.062;25.624;2023-03-26T00:42:28;12.60;99.90
68387;DHT22;55338;43.062;25.624;2023-03-26T00:44:54;12.60;99.90
68387;DHT22;55338;43.062;25.624;2023-03-26T00:47:23;12.60;99.90
68387;DHT22;55338;43.062;25.624;2023-03-26T00:49:49;12.60;99.90
68387;DHT22;55338;43.062;25.624;2023-03-26T00:52:16;12.60;99.90
68387;DHT22;55338;43.062;25.624;2023-03-26T00:54:45;12.60;99.90
68387;DHT22;55338;43.062;25.624;2023-03-26T00:57:11;12.60;99.90
68387;DHT22;55338;43.062;25.624;2023-03-26T00:59:40;12.60;99.90
68387;DHT22;55338;43.062;25.624;2023-03-26T01:02:08;12.60;99.90
68387;DHT22;55338;43.062;25.624;2023-03-26T01:04:36;12.60;99.90
68387;DHT22;55338;43.062;25.624;2023-03-26T01:07:25;12.70;99.90
68387;DHT22;55338;43.062;25.624;2023-03-26T01:09:57;12.60;99.90
68387;DHT22;55338;43.062;25.624;2023-03-26T01:12:26;12.70;99.90
68387;DHT22;55338;43.062;25.624;2023-03-26T01:14:56;12.70;99.90
68387;DHT22;55338;43.062;25.624;2023-03-26T01:17:26;12.80;99.90
68387;DHT22;55338;43.062;25.624;2023-03-26T01:22:33;12.70;99.90
68387;DHT22;55338;43.062;25.624;2023-03-26T01:25:01;12.80;99.90
68387;DHT22;55338;43.062;25.624;2023-03-26T01:33:10;12.80;99.90
68387;DHT22;55338;43.062;25.624;2023-03-26T01:44:26;12.90;99.90
68387;DHT22;55338;43.062;25.624;2023-03-26T01:46:54;12.90;99.90
68387;DHT22;55338;43.062;25.624;2023-03-26T01:49:20;13.00;99.90
68387;DHT22;55338;43.062;25.624;2023-03-26T01:51:46;13.00;99.90
68387;DHT22;55338;43.062;25.624;2023-03-26T01:54:15;13.00;99.90
68387;DHT22;55338;43.062;25.624;2023-03-26T01:56:51;13.00;99.90
68387;DHT22;55338;43.062;25.624;2023-03-26T02:08:34;13.00;99.90
68387;DHT22;55338;43.062;25.624;2023-03-26T02:11:06;13.00;99.90
68387;DHT22;55338;43.062;25.624;2023-03-26T02:13:37;13.00;99.90
68387;DHT22;55338;43.062;25.624;2023-03-26T02:16:06;13.00;99.90
68387;DHT22;55338;43.062;25.624;2023-03-26T02:18:32;13.00;99.90
68387;DHT22;55338;43.062;25.624;2023-03-26T02:23:41;13.10;99.90
68387;DHT22;55338;43.062;25.624;2023-03-26T02:26:12;13.10;99.90
68387;DHT22;55338;43.062;25.624;2023-03-26T02:28:39;13.10;99.90
68387;DHT22;55338;43.062;25.624;2023-03-26T02:31:06;13.10;99.90
68387;DHT22;55338;43.062;25.624;2023-03-26T02:33:34;13.10;99.90
68387;DHT22;55338;43.062;25.624;2023-03-26T02:36:00;13.10;99.90
68387;DHT22;55338;43.062;25.624;2023-03-26T02:38:32;13.10;99.90
68387;DHT22;55338;43.062;25.624;2023-03-26T02:41:00;13.10;99.90
68387;DHT22;55338;43.062;25.624;2023-03-26T02:43:27;13.10;99.90
68387;DHT22;55338;43.062;25.624;2023-03-26T02:45:52;13.10;99.90
68387;DHT22;55338;43.062;25.624;2023-03-26T02:48:19;13.20;99.90
68387;DHT22;55338;43.062;25.624;2023-03-26T02:50:45;13.10;99.90
68387;DHT22;55338;43.062;25.624;2023-03-26T02:53:15;13.10;99.90
68387;DHT22;55338;43.062;25.624;2023-03-26T02:55:41;13.10;99.90
68387;DHT22;55338;43.062;25.624;2023-03-26T02:58:07;13.10;99.90
68387;DHT22;55338;43.062;25.624;2023-03-26T03:00:33;13.10;99.90
68387;DHT22;55338;43.062;25.624;2023-03-26T03:03:01;13.00;99.90
68387;DHT22;55338;43.062;25.624;2023-03-26T03:05:29;13.00;99.90
68387;DHT22;55338;43.062;25.624;2023-03-26T03:07:57;12.90;99.90
68387;DHT22;55338;43.062;25.624;2023-03-26T03:10:27;12.90;99.90
68387;DHT22;55338;43.062;25.624;2023-03-26T03:12:54;12.90;99.90
68387;DHT22;55338;43.062;25.624;2023-03-26T03:15:19;12.90;99.90
68387;DHT22;55338;43.062;25.624;2023-03-26T03:17:46;12.90;99.90
68387;DHT22;55338;43.062;25.624;2023-03-26T03:20:12;12.80;99.90
68387;DHT22;55338;43.062;25.624;2023-03-26T03:22:38;12.80;99.90
68387;DHT22;55338;43.062;25.624;2023-03-26T03:25:04;12.80;99.90
68387;DHT22;55338;43.062;25.624;2023-03-26T03:27:33;12.90;99.90
68387;DHT22;55338;43.062;25.624;2023-03-26T03:29:59;12.90;99.90
68387;DHT22;55338;43.062;25.624;2023-03-26T03:32:25;12.90;99.90
68387;DHT22;55338;43.062;25.624;2023-03-26T03:34:52;12.90;99.90
68387;DHT22;55338;43.062;25.624;2023-03-26T03:37:18;12.90;99.90
68387;DHT22;55338;43.062;25.624;2023-03-26T03:39:44;12.90;99.90
68387;DHT22;55338;43.062;25.624;2023-03-26T03:42:10;12.90;99.90
68387;DHT22;55338;43.062;25.624;2023-03-26T03:44:36;12.90;99.90
68387;DHT22;55338;43.062;25.624;2023-03-26T03:47:02;13.00;99.90
68387;DHT22;55338;43.062;25.624;2023-03-26T03:49:28;12.90;99.90
68387;DHT22;55338;43.062;25.624;2023-03-26T03:51:54;12.90;99.90
68387;DHT22;55338;43.062;25.624;2023-03-26T03:54:20;12.90;99.90
68387;DHT22;55338;43.062;25.624;2023-03-26T03:56:46;12.90;99.90
68387;DHT22;55338;43.062;25.624;2023-03-26T03:59:13;12.90;99.90
68387;DHT22;55338;43.062;25.624;2023-03-26T04:01:40;12.90;99.90
68387;DHT22;55338;43.062;25.624;2023-03-26T04:04:08;12.90;99.90
68387;DHT22;55338;43.062;25.624;2023-03-26T04:06:34;12.80;99.90
68387;DHT22;55338;43.062;25.624;2023-03-26T04:08:59;12.70;99.90
68387;DHT22;55338;43.062;25.624;2023-03-26T04:11:25;12.70;99.90
68387;DHT22;55338;43.062;25.624;2023-03-26T04:13:51;12.70;99.90
68387;DHT22;55338;43.062;25.624;2023-03-26T04:16:17;12.70;99.90
68387;DHT22;55338;43.062;25.624;2023-03-26T04:18:43;12.70;99.90
68387;DHT22;55338;43.062;25.624;2023-03-26T04:21:11;12.70;99.90
68387;DHT22;55338;43.062;25.624;2023-03-26T04:23:37;12.60;99.90
68387;DHT22;55338;43.062;25.624;2023-03-26T04:26:08;12.60;99.90
68387;DHT22;55338;43.062;25.624;2023-03-26T04:28:51;12.60;99.90
68387;DHT22;55338;43.062;25.624;2023-03-26T04:31:20;12.60;99.90
68387;DHT22;55338;43.062;25.624;2023-03-26T04:33:55;12.60;99.90
68387;DHT22;55338;43.062;25.624;2023-03-26T04:36:28;12.50;99.90
68387;DHT22;55338;43.062;25.624;2023-03-26T04:38:57;12.50;99.90
68387;DHT22;55338;43.062;25.624;2023-03-26T04:41:27;12.50;99.90
68387;DHT22;55338;43.062;25.624;2023-03-26T04:43:54;12.50;99.90
68387;DHT22;55338;43.062;25.624;2023-03-26T04:46:22;12.40;99.90
68387;DHT22;55338;43.062;25.624;2023-03-26T04:48:49;12.40;99.90
68387;DHT22;55338;43.062;25.624;2023-03-26T04:51:16;12.30;99.90
68387;DHT22;55338;43.062;25.624;2023-03-26T04:53:50;12.30;99.90
68387;DHT22;55338;43.062;25.624;2023-03-26T04:59:02;12.40;99.90
68387;DHT22;55338;43.062;25.624;2023-03-26T05:01:27;12.30;99.90
68387;DHT22;55338;43.062;25.624;2023-03-26T05:03:58;12.20;99.90
68387;DHT22;55338;43.062;25.624;2023-03-26T05:06:27;12.30;99.90
68387;DHT22;55338;43.062;25.624;2023-03-26T05:08:53;12.30;99.90
68387;DHT22;55338;43.062;25.624;2023-03-26T05:11:19;12.40;99.90
68387;DHT22;55338;43.062;25.624;2023-03-26T05:13:45;12.50;99.90
68387;DHT22;55338;43.062;25.624;2023-03-26T05:16:12;12.70;99.90
68387;DHT22;55338;43.062;25.624;2023-03-26T05:18:38;12.80;98.90
68387;DHT22;55338;43.062;25.624;2023-03-26T05:21:04;12.90;98.20
68387;DHT22;55338;43.062;25.624;2023-03-26T05:23:30;12.90;97.80
68387;DHT22;55338;43.062;25.624;2023-03-26T05:25:56;12.80;98.00
68387;DHT22;55338;43.062;25.624;2023-03-26T05:28:21;12.90;97.10
68387;DHT22;55338;43.062;25.624;2023-03-26T05:30:50;13.10;96.60
68387;DHT22;55338;43.062;25.624;2023-03-26T05:33:18;13.50;95.20
68387;DHT22;55338;43.062;25.624;2023-03-26T05:35:44;13.90;93.40
68387;DHT22;55338;43.062;25.624;2023-03-26T05:38:10;14.10;90.70
68387;DHT22;55338;43.062;25.624;2023-03-26T05:40:36;14.20;88.90
68387;DHT22;55338;43.062;25.624;2023-03-26T05:43:02;14.30;87.80
68387;DHT22;55338;43.062;25.624;2023-03-26T05:45:28;14.40;87.30
68387;DHT22;55338;43.062;25.624;2023-03-26T05:47:53;14.60;86.10
68387;DHT22;55338;43.062;25.624;2023-03-26T05:50:20;14.60;85.50
68387;DHT22;55338;43.062;25.624;2023-03-26T05:52:46;14.70;84.40
68387;DHT22;55338;43.062;25.624;2023-03-26T05:55:12;14.80;83.20
68387;DHT22;55338;43.062;25.624;2023-03-26T05:57:37;15.10;83.80
68387;DHT22;55338;43.062;25.624;2023-03-26T06:00:05;14.60;82.90
68387;DHT22;55338;43.062;25.624;2023-03-26T06:02:33;14.80;82.00
68387;DHT22;55338;43.062;25.624;2023-03-26T06:05:01;14.80;81.60
68387;DHT22;55338;43.062;25.624;2023-03-26T06:07:28;14.80;81.50
68387;DHT22;55338;43.062;25.624;2023-03-26T06:09:56;15.00;81.20
68387;DHT22;55338;43.062;25.624;2023-03-26T06:12:21;15.20;80.00
68387;DHT22;55338;43.062;25.624;2023-03-26T06:14:47;15.40;78.20
68387;DHT22;55338;43.062;25.624;2023-03-26T06:17:13;15.60;77.10
68387;DHT22;55338;43.062;25.624;2023-03-26T06:19:39;15.80;76.10
68387;DHT22;55338;43.062;25.624;2023-03-26T06:22:04;15.80;75.90
68387;DHT22;55338;43.062;25.624;2023-03-26T06:24:31;16.20;74.70
68387;DHT22;55338;43.062;25.624;2023-03-26T06:26:57;16.20;72.40
68387;DHT22;55338;43.062;25.624;2023-03-26T06:29:23;15.90;73.90
68387;DHT22;55338;43.062;25.624;2023-03-26T06:31:48;15.60;74.00
68387;DHT22;55338;43.062;25.624;2023-03-26T06:34:15;15.30;75.10
68387;DHT22;55338;43.062;25.624;2023-03-26T06:36:40;15.60;75.30
68387;DHT22;55338;43.062;25.624;2023-03-26T06:39:06;15.90;73.80
68387;DHT22;55338;43.062;25.624;2023-03-26T06:41:35;15.80;72.50
68387;DHT22;55338;43.062;25.624;2023-03-26T06:44:01;15.60;73.40
68387;DHT22;55338;43.062;25.624;2023-03-26T06:46:27;15.40;73.80
68387;DHT22;55338;43.062;25.624;2023-03-26T06:48:52;15.30;73.70
68387;DHT22;55338;43.062;25.624;2023-03-26T06:51:18;15.40;74.30
68387;DHT22;55338;43.062;25.624;2023-03-26T06:53:44;15.10;74.60
68387;DHT22;55338;43.062;25.624;2023-03-26T06:56:10;14.90;74.50
68387;DHT22;55338;43.062;25.624;2023-03-26T06:58:36;14.80;74.20
68387;DHT22;55338;43.062;25.624;2023-03-26T07:01:02;15.10;74.20
68387;DHT22;55338;43.062;25.624;2023-03-26T07:03:28;15.80;72.40
68387;DHT22;55338;43.062;25.624;2023-03-26T07:05:54;15.80;70.20
68387;DHT22;55338;43.062;25.624;2023-03-26T07:08:20;15.40;71.20
68387;DHT22;55338;43.062;25.624;2023-03-26T07:10:46;15.40;71.30
68387;DHT22;55338;43.062;25.624;2023-03-26T07:13:12;15.40;71.00
68387;DHT22;55338;43.062;25.624;2023-03-26T07:15:37;15.40;71.00
68387;DHT22;55338;43.062;25.624;2023-03-26T07:18:03;15.30;70.60
68387;DHT22;55338;43.062;25.624;2023-03-26T07:20:29;15.30;70.90
68387;DHT22;55338;43.062;25.624;2023-03-26T07:22:55;15.20;70.50
68387;DHT22;55338;43.062;25.624;2023-03-26T07:25:21;15.00;71.10
68387;DHT22;55338;43.062;25.624;2023-03-26T07:27:56;14.90;71.10
68387;DHT22;55338;43.062;25.624;2023-03-26T07:36:35;14.80;71.10
68387;DHT22;55338;43.062;25.624;2023-03-26T07:39:13;14.80;71.40
68387;DHT22;55338;43.062;25.624;2023-03-26T07:42:03;15.00;70.90
68387;DHT22;55338;43.062;25.624;2023-03-26T07:47:41;15.00;69.30
68387;DHT22;55338;43.062;25.624;2023-03-26T07:50:16;15.20;69.70
68387;DHT22;55338;43.062;25.624;2023-03-26T07:52:43;15.40;68.60
68387;DHT22;55338;43.062;25.624;2023-03-26T07:55:13;15.70;68.20
68387;DHT22;55338;43.062;25.624;2023-03-26T08:00:39;16.20;65.80
68387;DHT22;55338;43.062;25.624;2023-03-26T08:06:10;17.30;62.10
68387;DHT22;55338;43.062;25.624;2023-03-26T08:08:52;17.90;59.60
68387;DHT22;55338;43.062;25.624;2023-03-26T08:14:51;18.10;58.30
68387;DHT22;55338;43.062;25.624;2023-03-26T08:17:26;18.60;56.40
68387;DHT22;55338;43.062;25.624;2023-03-26T08:25:56;18.60;55.00
68387;DHT22;55338;43.062;25.624;2023-03-26T08:28:45;18.10;55.70
68387;DHT22;55338;43.062;25.624;2023-03-26T08:31:14;17.90;56.20
68387;DHT22;55338;43.062;25.624;2023-03-26T08:33:42;18.00;56.90
68387;DHT22;55338;43.062;25.624;2023-03-26T08:36:09;19.20;54.10
68387;DHT22;55338;43.062;25.624;2023-03-26T08:38:35;19.60;51.60
68387;DHT22;55338;43.062;25.624;2023-03-26T08:46:45;19.70;52.30
68387;DHT22;55338;43.062;25.624;2023-03-26T08:49:33;20.50;49.20
68387;DHT22;55338;43.062;25.624;2023-03-26T08:55:23;20.60;45.70
68387;DHT22;55338;43.062;25.624;2023-03-26T09:03:32;21.10;48.20
68387;DHT22;55338;43.062;25.624;2023-03-26T09:06:38;21.90;43.60
68387;DHT22;55338;43.062;25.624;2023-03-26T09:31:40;24.10;39.00
68387;DHT22;55338;43.062;25.624;2023-03-26T09:37:17;24.20;37.50
68387;DHT22;55338;43.062;25.624;2023-03-26T10:02:07;24.60;36.20
68387;DHT22;55338;43.062;25.624;2023-03-26T10:18:35;23.80;34.80
68387;DHT22;55338;43.062;25.624;2023-03-26T10:21:25;23.60;35.40
68387;DHT22;55338;43.062;25.624;2023-03-26T10:37:49;24.40;32.60
68387;DHT22;55338;43.062;25.624;2023-03-26T10:40:54;25.10;30.00
68387;DHT22;55338;43.062;25.624;2023-03-26T10:52:03;25.20;30.00
68387;DHT22;55338;43.062;25.624;2023-03-26T11:00:41;24.60;30.00
68387;DHT22;55338;43.062;25.624;2023-03-26T11:05:48;24.60;27.30
68387;DHT22;55338;43.062;25.624;2023-03-26T11:17:09;23.60;31.60
68387;DHT22;55338;43.062;25.624;2023-03-26T11:19:56;24.00;28.70
68387;DHT22;55338;43.062;25.624;2023-03-26T11:23:00;24.40;30.80
68387;DHT22;55338;43.062;25.624;2023-03-26T11:33:36;24.50;26.30
68387;DHT22;55338;43.062;25.624;2023-03-26T11:36:10;24.80;27.80
68387;DHT22;55338;43.062;25.624;2023-03-26T11:38:43;25.40;29.00
68387;DHT22;55338;43.062;25.624;2023-03-26T11:41:17;25.50;26.60
68387;DHT22;55338;43.062;25.624;2023-03-26T11:43:48;25.60;25.40
68387;DHT22;55338;43.062;25.624;2023-03-26T11:46:19;25.40;24.90
68387;DHT22;55338;43.062;25.624;2023-03-26T11:48:57;24.90;27.30
68387;DHT22;55338;43.062;25.624;2023-03-26T11:53:53;24.60;25.10
68387;DHT22;55338;43.062;25.624;2023-03-26T11:56:29;24.70;27.40
68387;DHT22;55338;43.062;25.624;2023-03-26T12:01:28;25.70;25.70
68387;DHT22;55338;43.062;25.624;2023-03-26T12:04:14;26.30;24.80
68387;DHT22;55338;43.062;25.624;2023-03-26T12:06:54;26.10;22.50
68387;DHT22;55338;43.062;25.624;2023-03-26T12:09:22;25.80;23.90
68387;DHT22;55338;43.062;25.624;2023-03-26T12:11:48;25.60;24.40
68387;DHT22;55338;43.062;25.624;2023-03-26T12:14:28;25.30;25.10
68387;DHT22;55338;43.062;25.624;2023-03-26T12:19:38;25.10;25.60
68387;DHT22;55338;43.062;25.624;2023-03-26T12:22:04;25.60;24.70
68387;DHT22;55338;43.062;25.624;2023-03-26T12:24:35;25.90;23.70
68387;DHT22;55338;43.062;25.624;2023-03-26T12:27:22;25.40;22.50
68387;DHT22;55338;43.062;25.624;2023-03-26T12:29:51;25.70;22.60
68387;DHT22;55338;43.062;25.624;2023-03-26T12:32:17;25.80;22.50
68387;DHT22;55338;43.062;25.624;2023-03-26T12:34:43;26.20;24.70
68387;DHT22;55338;43.062;25.624;2023-03-26T12:37:35;26.10;23.90
68387;DHT22;55338;43.062;25.624;2023-03-26T12:40:27;25.90;24.50
68387;DHT22;55338;43.062;25.624;2023-03-26T12:42:54;25.30;25.90
68387;DHT22;55338;43.062;25.624;2023-03-26T12:45:22;25.40;25.40
68387;DHT22;55338;43.062;25.624;2023-03-26T12:47:52;25.60;23.90
68387;DHT22;55338;43.062;25.624;2023-03-26T12:50:23;25.80;22.50
68387;DHT22;55338;43.062;25.624;2023-03-26T13:06:40;25.40;21.70
68387;DHT22;55338;43.062;25.624;2023-03-26T13:09:15;25.90;24.30
68387;DHT22;55338;43.062;25.624;2023-03-26T13:12:07;25.70;21.50
68387;DHT22;55338;43.062;25.624;2023-03-26T13:17:30;25.70;23.50
68387;DHT22;55338;43.062;25.624;2023-03-26T13:23:01;26.10;23.10
68387;DHT22;55338;43.062;25.624;2023-03-26T13:25:41;25.90;23.40
68387;DHT22;55338;43.062;25.624;2023-03-26T13:28:13;25.90;23.80
68387;DHT22;55338;43.062;25.624;2023-03-26T13:33:29;26.60;22.00
68387;DHT22;55338;43.062;25.624;2023-03-26T13:41:50;26.40;20.90
68387;DHT22;55338;43.062;25.624;2023-03-26T13:47:07;26.10;19.90
68387;DHT22;55338;43.062;25.624;2023-03-26T13:52:43;25.50;20.50
68387;DHT22;55338;43.062;25.624;2023-03-26T14:01:05;25.00;21.60
68387;DHT22;55338;43.062;25.624;2023-03-26T14:06:42;25.00;21.60
68387;DHT22;55338;43.062;25.624;2023-03-26T14:09:30;24.90;21.60
68387;DHT22;55338;43.062;25.624;2023-03-26T14:14:49;25.00;22.50
68387;DHT22;55338;43.062;25.624;2023-03-26T14:17:17;24.80;22.20
68387;DHT22;55338;43.062;25.624;2023-03-26T14:20:13;24.70;21.70
68387;DHT22;55338;43.062;25.624;2023-03-26T14:26:05;23.00;22.20
68387;DHT22;55338;43.062;25.624;2023-03-26T14:36:37;21.00;23.50
68387;DHT22;55338;43.062;25.624;2023-03-26T14:41:51;20.50;26.30
68387;DHT22;55338;43.062;25.624;2023-03-26T14:47:41;20.20;28.40
68387;DHT22;55338;43.062;25.624;2023-03-26T14:53:24;19.70;29.00
68387;DHT22;55338;43.062;25.624;2023-03-26T15:21:02;18.40;33.20
68387;DHT22;55338;43.062;25.624;2023-03-26T15:50:47;17.70;35.20
68387;DHT22;55338;43.062;25.624;2023-03-26T15:53:34;17.60;35.80
68387;DHT22;55338;43.062;25.624;2023-03-26T16:04:22;17.30;35.90
68387;DHT22;55338;43.062;25.624;2023-03-26T16:11:57;17.10;37.90
68387;DHT22;55338;43.062;25.624;2023-03-26T16:14:40;17.00;38.30
68387;DHT22;55338;43.062;25.624;2023-03-26T16:17:17;17.00;37.50
68387;DHT22;55338;43.062;25.624;2023-03-26T16:27:43;16.50;41.00
68387;DHT22;55338;43.062;25.624;2023-03-26T16:30:29;16.40;44.60
68387;DHT22;55338;43.062;25.624;2023-03-26T16:33:07;16.30;41.80
68387;DHT22;55338;43.062;25.624;2023-03-26T16:35:39;16.10;43.20
68387;DHT22;55338;43.062;25.624;2023-03-26T16:38:15;16.00;43.60
68387;DHT22;55338;43.062;25.624;2023-03-26T16:43:48;15.70;44.60
68387;DHT22;55338;43.062;25.624;2023-03-26T16:52:01;15.20;50.00
68387;DHT22;55338;43.062;25.624;2023-03-26T16:57:46;14.80;50.50
68387;DHT22;55338;43.062;25.624;2023-03-26T17:00:21;14.60;54.50
68387;DHT22;55338;43.062;25.624;2023-03-26T17:11:23;14.00;52.90
68387;DHT22;55338;43.062;25.624;2023-03-26T17:14:12;13.90;54.70
68387;DHT22;55338;43.062;25.624;2023-03-26T17:16:49;13.60;54.90
68387;DHT22;55338;43.062;25.624;2023-03-26T17:24:36;13.40;56.70
68387;DHT22;55338;43.062;25.624;2023-03-26T17:40:54;12.70;61.10
68387;DHT22;55338;43.062;25.624;2023-03-26T17:43:49;12.60;61.40
68387;DHT22;55338;43.062;25.624;2023-03-26T17:46:35;12.50;61.50
68387;DHT22;55338;43.062;25.624;2023-03-26T17:54:33;12.20;62.10
68387;DHT22;55338;43.062;25.624;2023-03-26T17:57:31;12.10;63.60
68387;DHT22;55338;43.062;25.624;2023-03-26T17:59:57;12.00;64.80
68387;DHT22;55338;43.062;25.624;2023-03-26T18:02:38;11.90;62.90
68387;DHT22;55338;43.062;25.624;2023-03-26T18:05:10;11.80;64.30
68387;DHT22;55338;43.062;25.624;2023-03-26T18:21:38;11.20;65.20
68387;DHT22;55338;43.062;25.624;2023-03-26T18:24:13;11.20;66.10
68387;DHT22;55338;43.062;25.624;2023-03-26T18:26:44;11.10;68.00
68387;DHT22;55338;43.062;25.624;2023-03-26T18:29:27;10.90;67.60
68387;DHT22;55338;43.062;25.624;2023-03-26T18:32:02;10.80;68.90
68387;DHT22;55338;43.062;25.624;2023-03-26T18:34:47;10.70;69.10
68387;DHT22;55338;43.062;25.624;2023-03-26T18:42:24;10.50;67.60
68387;DHT22;55338;43.062;25.624;2023-03-26T18:44:52;10.40;67.00
68387;DHT22;55338;43.062;25.624;2023-03-26T18:47:19;10.40;68.80
68387;DHT22;55338;43.062;25.624;2023-03-26T18:49:46;10.30;68.90
68387;DHT22;55338;43.062;25.624;2023-03-26T18:52:15;10.30;69.60
68387;DHT22;55338;43.062;25.624;2023-03-26T18:54:44;10.30;69.90
68387;DHT22;55338;43.062;25.624;2023-03-26T18:57:20;10.30;69.10
68387;DHT22;55338;43.062;25.624;2023-03-26T18:59:49;10.30;68.90
68387;DHT22;55338;43.062;25.624;2023-03-26T19:02:16;10.30;71.60
68387;DHT22;55338;43.062;25.624;2023-03-26T19:04:43;10.30;72.30
68387;DHT22;55338;43.062;25.624;2023-03-26T19:07:12;10.20;72.50
68387;DHT22;55338;43.062;25.624;2023-03-26T19:09:40;10.20;71.00
68387;DHT22;55338;43.062;25.624;2023-03-26T19:12:19;10.10;72.80
68387;DHT22;55338;43.062;25.624;2023-03-26T19:17:26;9.90;74.40
68387;DHT22;55338;43.062;25.624;2023-03-26T19:19:54;9.90;73.40
68387;DHT22;55338;43.062;25.624;2023-03-26T19:22:22;9.80;72.80
68387;DHT22;55338;43.062;25.624;2023-03-26T19:24:49;9.70;73.20
68387;DHT22;55338;43.062;25.624;2023-03-26T19:27:17;9.60;74.10
68387;DHT22;55338;43.062;25.624;2023-03-26T19:29:43;9.60;73.80
68387;DHT22;55338;43.062;25.624;2023-03-26T19:32:28;9.60;74.60
68387;DHT22;55338;43.062;25.624;2023-03-26T19:34:58;9.60;76.30
68387;DHT22;55338;43.062;25.624;2023-03-26T19:37:26;9.50;76.30
68387;DHT22;55338;43.062;25.624;2023-03-26T19:40:00;9.40;75.50
68387;DHT22;55338;43.062;25.624;2023-03-26T19:42:31;9.40;76.10
68387;DHT22;55338;43.062;25.624;2023-03-26T19:45:03;9.40;76.30
68387;DHT22;55338;43.062;25.624;2023-03-26T19:47:40;9.50;76.90
68387;DHT22;55338;43.062;25.624;2023-03-26T19:50:28;9.50;77.40
68387;DHT22;55338;43.062;25.624;2023-03-26T19:53:11;9.40;75.90
68387;DHT22;55338;43.062;25.624;2023-03-26T19:55:40;9.40;78.30
68387;DHT22;55338;43.062;25.624;2023-03-26T19:58:08;9.40;78.90
68387;DHT22;55338;43.062;25.624;2023-03-26T20:00:35;9.30;80.20
68387;DHT22;55338;43.062;25.624;2023-03-26T20:03:01;9.30;79.00
68387;DHT22;55338;43.062;25.624;2023-03-26T20:05:32;9.30;81.20
68387;DHT22;55338;43.062;25.624;2023-03-26T20:07:59;9.20;79.60
68387;DHT22;55338;43.062;25.624;2023-03-26T20:10:27;9.10;77.60
68387;DHT22;55338;43.062;25.624;2023-03-26T20:12:53;9.10;78.10
68387;DHT22;55338;43.062;25.624;2023-03-26T20:15:22;9.10;78.10
68387;DHT22;55338;43.062;25.624;2023-03-26T20:17:49;9.20;79.10
68387;DHT22;55338;43.062;25.624;2023-03-26T20:20:17;9.20;80.10
68387;DHT22;55338;43.062;25.624;2023-03-26T20:22:45;9.10;80.50
68387;DHT22;55338;43.062;25.624;2023-03-26T20:25:29;9.10;82.30
68387;DHT22;55338;43.062;25.624;2023-03-26T20:27:56;9.00;82.40
68387;DHT22;55338;43.062;25.624;2023-03-26T20:30:23;9.00;84.40
68387;DHT22;55338;43.062;25.624;2023-03-26T20:32:49;9.00;84.50
68387;DHT22;55338;43.062;25.624;2023-03-26T20:35:25;8.90;83.30
68387;DHT22;55338;43.062;25.624;2023-03-26T20:37:51;8.90;82.80
68387;DHT22;55338;43.062;25.624;2023-03-26T20:40:18;8.90;83.50
68387;DHT22;55338;43.062;25.624;2023-03-26T20:42:45;8.80;84.40
68387;DHT22;55338;43.062;25.624;2023-03-26T20:45:15;8.80;86.80
68387;DHT22;55338;43.062;25.624;2023-03-26T20:47:43;8.80;87.10
68387;DHT22;55338;43.062;25.624;2023-03-26T20:50:12;8.70;89.30
68387;DHT22;55338;43.062;25.624;2023-03-26T20:52:39;8.70;90.80
68387;DHT22;55338;43.062;25.624;2023-03-26T20:55:12;8.70;90.10
68387;DHT22;55338;43.062;25.624;2023-03-26T20:57:38;8.50;89.80
68387;DHT22;55338;43.062;25.624;2023-03-26T21:00:05;8.60;89.50
68387;DHT22;55338;43.062;25.624;2023-03-26T21:02:53;8.70;92.10
68387;DHT22;55338;43.062;25.624;2023-03-26T21:05:21;8.70;92.70
68387;DHT22;55338;43.062;25.624;2023-03-26T21:07:54;8.60;92.70
68387;DHT22;55338;43.062;25.624;2023-03-26T21:10:21;8.60;93.20
68387;DHT22;55338;43.062;25.624;2023-03-26T21:15:15;8.40;94.70
68387;DHT22;55338;43.062;25.624;2023-03-26T21:17:41;8.70;97.60
68387;DHT22;55338;43.062;25.624;2023-03-26T21:20:08;8.40;95.00
68387;DHT22;55338;43.062;25.624;2023-03-26T21:22:43;8.30;96.10
68387;DHT22;55338;43.062;25.624;2023-03-26T21:30:51;8.10;94.60
68387;DHT22;55338;43.062;25.624;2023-03-26T21:33:17;8.00;95.50
68387;DHT22;55338;43.062;25.624;2023-03-26T21:35:44;8.00;96.50
68387;DHT22;55338;43.062;25.624;2023-03-26T21:38:17;7.90;96.00
68387;DHT22;55338;43.062;25.624;2023-03-26T21:40:47;7.90;95.70
68387;DHT22;55338;43.062;25.624;2023-03-26T21:43:13;7.80;98.70
68387;DHT22;55338;43.062;25.624;2023-03-26T21:45:40;7.80;99.70
68387;DHT22;55338;43.062;25.624;2023-03-26T21:48:06;7.90;98.00
68387;DHT22;55338;43.062;25.624;2023-03-26T21:50:32;7.90;97.10
68387;DHT22;55338;43.062;25.624;2023-03-26T21:52:58;7.80;97.60
68387;DHT22;55338;43.062;25.624;2023-03-26T21:55:24;7.70;98.00
68387;DHT22;55338;43.062;25.624;2023-03-26T22:00:59;7.60;99.90
68387;DHT22;55338;43.062;25.624;2023-03-26T22:03:36;7.50;99.90
68387;DHT22;55338;43.062;25.624;2023-03-26T22:06:29;7.50;99.90
68387;DHT22;55338;43.062;25.624;2023-03-26T22:08:57;7.40;99.90
68387;DHT22;55338;43.062;25.624;2023-03-26T22:11:24;7.40;99.90
68387;DHT22;55338;43.062;25.624;2023-03-26T22:13:50;7.40;99.90
68387;DHT22;55338;43.062;25.624;2023-03-26T22:16:16;7.30;99.90
68387;DHT22;55338;43.062;25.624;2023-03-26T22:18:42;7.30;99.90
68387;DHT22;55338;43.062;25.624;2023-03-26T22:21:08;7.30;99.90
68387;DHT22;55338;43.062;25.624;2023-03-26T22:23:34;7.20;99.90
68387;DHT22;55338;43.062;25.624;2023-03-26T22:26:02;7.10;99.90